Norridge, Illinois
Current Conditions -  °F | °C
As of 10:51 AM on Thursday 30 Oct 2014 (Local Time) from KORD Reporting Station
Broken Clouds Broken Clouds  
Wind Chill: 43°   Ceiling: 25000
Heat Index: 47°   Visibility: 10mi
Dew Point: 34°   Wind: 9mph
Humidity: 61%   Direction: 220°SW
Pressure: 30.12"   Gusts: NA
Location:  41.9716°N, 87.822°W
Report Text: KORD 301551Z 22008KT 10SM FEW130 BKN250 08/01 A3012 RMK AO2 SLP204 T00830011
Loading
Personal Weather Stations






























Interactive Weather Map
Tropical Storm Tracking
New forecast layout! Learn more

10-Day Weather Forecast

Advertisements
Track Severe Weather on mobile